Time;durP1;ratioP1;P1;durP2;ratioP2;P2;SDS_P1;SDS_P2;PMS_P1;PMS_P2;Temp;Humidity;BMP_temperature;BMP_pressure;BME280_temperature;BME280_humidity;BME280_pressure;Samples;Min_cycle;Max_cycle;Signal;HPM_P1;HPM_P2
2022/01/15 00:00:42;;;;;;;30.93;13.67;;;4.70;86.20;;;;;;5107285;28;20189;-74
2022/01/15 00:03:12;;;;;;;29.77;14.17;;;4.70;85.80;;;;;;5106485;28;20220;-74
2022/01/15 00:05:41;;;;;;;25.70;12.07;;;4.70;85.70;;;;;;5106318;28;20189;-74
2022/01/15 00:08:10;;;;;;;24.37;12.30;;;4.70;85.60;;;;;;5105463;28;20203;-74
2022/01/15 00:10:39;;;;;;;25.60;12.13;;;4.80;85.70;;;;;;5105805;28;20193;-74
2022/01/15 00:13:13;;;;;;;26.07;11.93;;;4.80;85.50;;;;;;5106178;28;20196;-74
2022/01/15 00:15:49;;;;;;;22.37;11.30;;;4.80;85.50;;;;;;5097965;27;20191;-74
2022/01/15 00:18:18;;;;;;;25.27;11.73;;;4.80;85.50;;;;;;5104893;28;20210;-74
2022/01/15 00:20:46;;;;;;;25.80;11.70;;;4.80;85.40;;;;;;5105167;28;20193;-74
2022/01/15 00:23:14;;;;;;;28.90;10.97;;;4.80;85.40;;;;;;5103231;28;20212;-74
2022/01/15 00:25:44;;;;;;;20.60;10.00;;;4.80;85.30;;;;;;5101310;28;20192;-74
2022/01/15 00:28:13;;;;;;;23.77;10.53;;;4.80;85.20;;;;;;5104228;28;20193;-74
2022/01/15 00:30:41;;;;;;;17.93;10.37;;;4.90;85.20;;;;;;5103942;28;20789;-74
2022/01/15 00:33:09;;;;;;;24.07;11.00;;;4.90;85.10;;;;;;5101076;28;20730;-74
2022/01/15 00:35:38;;;;;;;21.47;10.17;;;4.90;85.00;;;;;;5096116;28;20620;-74
2022/01/15 00:38:06;;;;;;;19.17;9.93;;;4.90;85.00;;;;;;5103035;28;20185;-75
2022/01/15 00:40:34;;;;;;;23.77;10.43;;;4.90;84.90;;;;;;5101411;28;20204;-74
2022/01/15 00:43:04;;;;;;;27.23;11.57;;;4.90;84.80;;;;;;5099679;28;20643;-74
2022/01/15 00:45:33;;;;;;;26.37;12.97;;;4.90;84.80;;;;;;5101733;28;20299;-75
2022/01/15 00:48:02;;;;;;;28.10;12.50;;;4.90;84.80;;;;;;5101394;28;20188;-74
2022/01/15 00:50:30;;;;;;;27.77;11.33;;;4.90;84.70;;;;;;5103651;28;20197;-75
2022/01/15 00:52:59;;;;;;;24.90;11.93;;;4.90;84.70;;;;;;5101694;28;20198;-74
2022/01/15 00:55:27;;;;;;;33.17;12.97;;;4.90;84.70;;;;;;5103118;28;20311;-74
2022/01/15 00:57:56;;;;;;;28.50;12.27;;;4.90;84.50;;;;;;5099101;28;20966;-74
2022/01/15 01:00:27;;;;;;;27.90;13.67;;;4.90;84.50;;;;;;5102489;28;20195;-74
2022/01/15 01:02:55;;;;;;;24.63;12.07;;;4.90;84.50;;;;;;5100850;28;20664;-74
2022/01/15 01:05:24;;;;;;;24.20;12.23;;;4.90;84.40;;;;;;5102967;28;20226;-74
2022/01/15 01:07:53;;;;;;;25.33;12.80;;;4.90;84.40;;;;;;5101345;28;20710;-76
2022/01/15 01:24:18;;;;;;;22.70;10.93;;;4.80;84.10;;;;;;5103174;28;20208;-74
2022/01/15 01:26:53;;;;;;;27.13;11.63;;;4.80;84.00;;;;;;5099976;28;20246;-74
2022/01/15 01:29:31;;;;;;;21.07;10.40;;;4.70;83.90;;;;;;5099343;28;20195;-75
2022/01/15 01:32:05;;;;;;;24.13;12.43;;;4.80;83.80;;;;;;5101322;28;20699;-74
2022/01/15 01:34:37;;;;;;;23.80;11.33;;;4.80;83.80;;;;;;5098289;28;20192;-75
2022/01/15 01:37:12;;;;;;;23.10;11.83;;;4.70;83.60;;;;;;5098918;28;20202;-74
2022/01/15 01:39:45;;;;;;;27.70;12.47;;;4.70;83.80;;;;;;5101570;28;20214;-74
2022/01/15 01:42:33;;;;;;;27.57;12.50;;;4.70;83.80;;;;;;5104362;28;20173;-74
2022/01/15 01:45:06;;;;;;;28.83;14.23;;;4.60;84.00;;;;;;5098228;28;20273;-75
2022/01/15 01:47:41;;;;;;;27.57;13.30;;;4.60;84.40;;;;;;5100348;28;20764;-74
2022/01/15 01:50:12;;;;;;;26.87;13.30;;;4.50;84.50;;;;;;5099353;28;20592;-75
2022/01/15 01:52:41;;;;;;;26.47;12.63;;;4.50;84.60;;;;;;5103144;28;20734;-75
2022/01/15 01:55:11;;;;;;;22.37;12.23;;;4.50;84.70;;;;;;5100814;28;20200;-74
2022/01/15 01:57:39;;;;;;;24.47;11.93;;;4.50;84.80;;;;;;5103079;28;20253;-75
2022/01/15 02:00:10;;;;;;;27.27;12.03;;;4.40;84.70;;;;;;5098803;28;20253;-74
2022/01/15 02:02:40;;;;;;;26.97;11.93;;;4.40;84.80;;;;;;5104097;28;20199;-74
2022/01/15 02:05:10;;;;;;;25.10;13.37;;;4.40;85.60;;;;;;5100978;28;20616;-74
2022/01/15 02:07:39;;;;;;;23.27;11.67;;;4.30;84.80;;;;;;5097835;28;20945;-74
2022/01/15 02:10:09;;;;;;;24.10;11.87;;;4.30;84.80;;;;;;5102209;28;20199;-74
2022/01/15 02:12:38;;;;;;;21.00;11.30;;;4.40;84.90;;;;;;5103538;28;20192;-74
2022/01/15 02:15:08;;;;;;;23.23;12.20;;;4.30;84.80;;;;;;5100662;28;20187;-74
2022/01/15 02:17:37;;;;;;;25.60;12.23;;;4.40;84.80;;;;;;5101859;28;20180;-74
2022/01/15 02:25:59;;;;;;;20.13;10.97;;;4.40;84.70;;;;;;5102411;28;20220;-74
2022/01/15 02:28:31;;;;;;;21.80;11.40;;;4.30;84.40;;;;;;5102416;27;20447;-75
2022/01/15 02:31:01;;;;;;;20.40;9.93;;;4.30;84.50;;;;;;5101438;28;20218;-74
2022/01/15 02:33:30;;;;;;;21.87;10.33;;;4.30;84.50;;;;;;5106963;28;20185;-74
2022/01/15 02:36:03;;;;;;;22.50;9.97;;;4.30;84.50;;;;;;5104352;27;20227;-74
2022/01/15 02:38:31;;;;;;;23.83;10.97;;;4.30;84.50;;;;;;5102176;28;20192;-74
2022/01/15 02:41:00;;;;;;;20.33;10.10;;;4.30;84.50;;;;;;5106182;28;20203;-74
2022/01/15 02:43:32;;;;;;;23.33;10.37;;;4.30;84.50;;;;;;5104751;28;20193;-75
2022/01/15 02:46:18;;;;;;;30.80;13.90;;;4.30;84.60;;;;;;5098171;28;20252;-74
2022/01/15 02:48:48;;;;;;;30.83;12.67;;;4.30;84.40;;;;;;5096701;28;20189;-74
2022/01/15 02:51:18;;;;;;;30.00;11.77;;;4.40;84.50;;;;;;5104552;28;20186;-74
2022/01/15 02:53:50;;;;;;;31.03;13.37;;;4.40;84.40;;;;;;5106661;28;20192;-74
2022/01/15 02:56:18;;;;;;;32.57;13.50;;;4.40;84.30;;;;;;5106627;28;20259;-74
2022/01/15 02:58:46;;;;;;;29.23;13.63;;;4.40;84.30;;;;;;5106788;28;20196;-74
2022/01/15 03:01:15;;;;;;;26.73;12.97;;;4.40;84.20;;;;;;5101734;28;20197;-74
2022/01/15 03:03:43;;;;;;;26.67;12.40;;;4.40;84.20;;;;;;5101465;28;20184;-74
2022/01/15 03:06:12;;;;;;;28.83;12.97;;;4.40;84.20;;;;;;5103110;28;20259;-75
2022/01/15 03:08:43;;;;;;;24.57;12.13;;;4.40;84.20;;;;;;5102905;28;20760;-74
2022/01/15 03:11:12;;;;;;;29.03;12.67;;;4.40;84.10;;;;;;5102321;28;20188;-74
2022/01/15 03:13:42;;;;;;;25.73;11.47;;;4.40;84.00;;;;;;5105496;28;20717;-74
2022/01/15 03:16:15;;;;;;;26.87;12.90;;;4.40;84.00;;;;;;5105205;28;20228;-74
2022/01/15 03:18:43;;;;;;;28.43;13.20;;;4.40;83.80;;;;;;5104815;28;20181;-74
2022/01/15 03:21:12;;;;;;;22.57;11.07;;;4.40;83.80;;;;;;5104857;28;20356;-75
2022/01/15 03:23:42;;;;;;;28.70;12.30;;;4.50;83.80;;;;;;5103506;28;20185;-74
2022/01/15 03:26:13;;;;;;;24.77;11.03;;;4.50;83.90;;;;;;5104964;28;20220;-74
2022/01/15 03:28:41;;;;;;;23.50;12.80;;;4.50;83.90;;;;;;5102170;28;20197;-74
2022/01/15 03:31:10;;;;;;;26.17;12.53;;;4.50;83.90;;;;;;5103326;28;20206;-74
2022/01/15 03:33:38;;;;;;;27.17;12.07;;;4.50;83.90;;;;;;5102297;28;20276;-75
2022/01/15 03:36:08;;;;;;;26.07;12.57;;;4.50;83.90;;;;;;5102252;28;20225;-74
2022/01/15 03:38:36;;;;;;;29.93;13.20;;;4.50;83.90;;;;;;5091342;28;20192;-74
2022/01/15 03:41:06;;;;;;;26.30;12.57;;;4.50;83.90;;;;;;5104545;28;20204;-74
2022/01/15 03:43:34;;;;;;;29.30;13.33;;;4.50;83.90;;;;;;5103104;27;20697;-74
2022/01/15 03:46:03;;;;;;;30.13;13.20;;;4.50;83.90;;;;;;5104211;28;20224;-74
2022/01/15 03:48:31;;;;;;;27.57;13.43;;;4.50;83.90;;;;;;5105599;28;20220;-74
2022/01/15 03:50:59;;;;;;;29.63;12.40;;;4.50;83.90;;;;;;5103780;28;20691;-74
2022/01/15 03:53:28;;;;;;;29.93;13.37;;;4.50;83.90;;;;;;5102843;28;20189;-74
2022/01/15 03:55:56;;;;;;;30.93;12.00;;;4.50;83.90;;;;;;5104163;28;20233;-74
2022/01/15 03:58:26;;;;;;;27.93;12.93;;;4.50;83.90;;;;;;5105222;28;20196;-74
2022/01/15 04:00:54;;;;;;;26.63;12.57;;;4.50;84.00;;;;;;5102440;28;20200;-74
2022/01/15 04:03:23;;;;;;;23.43;11.90;;;4.50;84.00;;;;;;5103903;28;20242;-74
2022/01/15 04:05:51;;;;;;;24.50;11.80;;;4.50;84.00;;;;;;5103032;28;20224;-74
2022/01/15 04:08:19;;;;;;;24.43;11.60;;;4.50;84.00;;;;;;5105715;28;20201;-74
2022/01/15 04:10:48;;;;;;;25.40;12.77;;;4.50;83.90;;;;;;5103130;28;20207;-74
2022/01/15 04:13:17;;;;;;;24.80;12.70;;;4.50;83.80;;;;;;5103469;28;20181;-74
2022/01/15 04:15:51;;;;;;;26.77;12.50;;;4.50;83.80;;;;;;5101601;28;20200;-74
2022/01/15 04:18:20;;;;;;;28.27;12.83;;;4.50;83.80;;;;;;5101994;28;20188;-74
2022/01/15 04:20:48;;;;;;;29.03;13.50;;;4.50;83.70;;;;;;5103219;28;20189;-74
2022/01/15 04:23:17;;;;;;;28.50;12.67;;;4.50;83.70;;;;;;5102189;28;20861;-75
2022/01/15 04:25:45;;;;;;;25.03;12.90;;;4.50;83.60;;;;;;5095497;28;20235;-74
2022/01/15 04:28:13;;;;;;;23.43;13.17;;;4.40;83.60;;;;;;5098655;28;20204;-74
2022/01/15 04:30:47;;;;;;;26.67;11.87;;;4.50;83.60;;;;;;5104080;28;20207;-74
2022/01/15 04:33:16;;;;;;;26.60;12.63;;;4.40;83.40;;;;;;5099831;28;20197;-74
2022/01/15 04:35:45;;;;;;;26.97;12.47;;;4.40;83.30;;;;;;5103357;28;20231;-74
2022/01/15 04:38:14;;;;;;;26.13;13.13;;;4.40;83.30;;;;;;5104375;28;20208;-74
2022/01/15 04:40:42;;;;;;;26.20;12.63;;;4.40;83.40;;;;;;5101671;28;20193;-74
2022/01/15 04:43:10;;;;;;;26.73;13.03;;;4.40;83.30;;;;;;5101377;28;20220;-74
2022/01/15 04:45:39;;;;;;;22.47;11.03;;;4.40;83.10;;;;;;5100227;27;20243;-74
2022/01/15 04:48:07;;;;;;;22.20;12.20;;;4.40;83.40;;;;;;5102141;28;20255;-74
2022/01/15 04:50:37;;;;;;;23.73;11.23;;;4.30;83.30;;;;;;5101612;28;20192;-74
2022/01/15 04:53:05;;;;;;;23.00;10.80;;;4.30;83.40;;;;;;5097747;28;20661;-73
2022/01/15 04:55:33;;;;;;;24.53;11.10;;;4.30;83.60;;;;;;5100160;27;20191;-74
2022/01/15 04:58:02;;;;;;;23.63;11.17;;;4.30;83.70;;;;;;5099552;28;20196;-74
2022/01/15 05:00:30;;;;;;;21.93;11.30;;;4.30;84.00;;;;;;5100555;28;20203;-74
2022/01/15 05:02:59;;;;;;;19.27;10.33;;;4.30;84.10;;;;;;5100611;28;20196;-74
2022/01/15 05:05:28;;;;;;;22.40;11.33;;;4.30;84.20;;;;;;5104280;28;20185;-74
2022/01/15 05:07:58;;;;;;;25.80;11.83;;;4.30;84.20;;;;;;5102223;28;20254;-74
2022/01/15 05:10:28;;;;;;;24.10;11.53;;;4.30;84.30;;;;;;5100382;28;20203;-74
2022/01/15 05:12:59;;;;;;;26.03;12.03;;;4.30;84.40;;;;;;5101768;28;20192;-74
2022/01/15 05:15:27;;;;;;;27.50;13.07;;;4.20;84.40;;;;;;5098055;28;20193;-74
2022/01/15 05:17:55;;;;;;;30.40;13.27;;;4.20;84.60;;;;;;5102553;28;20189;-74
2022/01/15 05:20:24;;;;;;;31.50;13.93;;;4.10;84.90;;;;;;5102845;28;20191;-74
2022/01/15 05:22:52;;;;;;;28.27;13.43;;;4.10;85.00;;;;;;5102450;28;20188;-74
2022/01/15 05:25:22;;;;;;;29.13;11.37;;;4.00;85.60;;;;;;5101360;28;20843;-74
2022/01/15 05:27:51;;;;;;;21.30;11.20;;;3.90;85.80;;;;;;5101071;28;20223;-73
2022/01/15 05:30:20;;;;;;;24.17;12.40;;;3.90;86.10;;;;;;5100984;28;20230;-74
2022/01/15 05:32:48;;;;;;;21.73;10.47;;;3.90;86.30;;;;;;5100897;28;20695;-74
2022/01/15 05:35:16;;;;;;;26.33;11.47;;;3.90;86.80;;;;;;5099255;28;20621;-74
2022/01/15 05:37:44;;;;;;;25.23;11.97;;;3.90;86.60;;;;;;5104266;28;20204;-74
2022/01/15 05:40:14;;;;;;;21.67;10.30;;;3.90;86.60;;;;;;5099323;28;20199;-74
2022/01/15 05:42:43;;;;;;;23.43;12.33;;;3.90;86.80;;;;;;5102955;28;20257;-74
2022/01/15 05:45:13;;;;;;;20.80;11.00;;;4.00;86.90;;;;;;5102069;28;20779;-74
2022/01/15 05:47:41;;;;;;;26.00;10.87;;;4.00;87.00;;;;;;5102238;28;20227;-74
2022/01/15 05:50:11;;;;;;;19.83;11.27;;;4.00;86.80;;;;;;5103566;28;20192;-74
2022/01/15 05:52:39;;;;;;;22.03;10.03;;;4.00;86.80;;;;;;5104235;28;20189;-74
2022/01/15 05:55:09;;;;;;;21.43;10.90;;;4.10;86.60;;;;;;5100586;28;20199;-74
2022/01/15 05:57:37;;;;;;;25.30;11.37;;;4.10;86.50;;;;;;5102248;28;20188;-74
2022/01/15 06:00:09;;;;;;;21.37;9.73;;;4.10;86.40;;;;;;5105051;27;20630;-74
2022/01/15 06:02:37;;;;;;;20.07;10.07;;;4.20;86.30;;;;;;5102086;28;20253;-74
2022/01/15 06:05:06;;;;;;;22.87;11.43;;;4.20;86.30;;;;;;5103755;28;20511;-74
2022/01/15 06:07:34;;;;;;;24.60;10.30;;;4.20;86.20;;;;;;5105560;28;20227;-74
2022/01/15 06:10:03;;;;;;;21.63;10.30;;;4.20;86.10;;;;;;5100871;28;20196;-74
2022/01/15 06:12:33;;;;;;;22.17;10.20;;;4.30;86.10;;;;;;5105630;28;20198;-74
2022/01/15 06:15:01;;;;;;;24.60;11.20;;;4.30;85.90;;;;;;5102371;28;20351;-74
2022/01/15 06:17:31;;;;;;;21.37;10.23;;;4.40;85.90;;;;;;5107774;28;20219;-74
2022/01/15 06:19:59;;;;;;;22.77;10.67;;;4.40;85.80;;;;;;5106062;28;20196;-74
2022/01/15 06:22:27;;;;;;;19.90;10.57;;;4.40;85.60;;;;;;5107200;28;20189;-74
2022/01/15 06:24:56;;;;;;;21.83;10.33;;;4.50;85.60;;;;;;5106685;28;20193;-74
2022/01/15 06:27:28;;;;;;;22.67;11.13;;;4.50;85.50;;;;;;5100078;28;20717;-75
2022/01/15 06:29:56;;;;;;;22.13;10.73;;;4.50;85.40;;;;;;5105086;28;20193;-74
2022/01/15 06:32:25;;;;;;;23.53;11.23;;;4.50;85.30;;;;;;5105231;28;20235;-74
2022/01/15 06:34:55;;;;;;;23.30;10.30;;;4.60;85.30;;;;;;5106233;28;20224;-74
2022/01/15 06:37:24;;;;;;;21.27;10.70;;;4.50;85.30;;;;;;5106882;28;20634;-74
2022/01/15 06:39:52;;;;;;;20.10;10.23;;;4.60;85.40;;;;;;5107232;28;20189;-74
2022/01/15 06:42:20;;;;;;;25.00;11.43;;;4.60;85.40;;;;;;5105403;28;20195;-75
2022/01/15 06:44:49;;;;;;;19.53;10.50;;;4.60;85.40;;;;;;5105252;28;20597;-74
2022/01/15 06:47:17;;;;;;;21.63;10.70;;;4.70;85.40;;;;;;5094816;28;20209;-74
2022/01/15 06:49:45;;;;;;;24.00;11.37;;;4.70;85.40;;;;;;5107231;28;20261;-74
2022/01/15 06:52:15;;;;;;;19.83;10.07;;;4.80;85.40;;;;;;5106684;28;20642;-74
2022/01/15 06:54:43;;;;;;;24.47;11.77;;;4.80;85.40;;;;;;5107876;28;20189;-74
2022/01/15 06:57:12;;;;;;;24.03;11.90;;;4.80;85.40;;;;;;5105949;28;20230;-74
2022/01/15 06:59:40;;;;;;;25.77;12.20;;;4.90;85.40;;;;;;5107547;28;20192;-74
2022/01/15 07:02:10;;;;;;;28.30;12.10;;;4.90;85.40;;;;;;5105249;28;20197;-74
2022/01/15 07:04:38;;;;;;;22.10;11.63;;;4.90;85.40;;;;;;5106317;28;20192;-74
2022/01/15 07:07:07;;;;;;;23.83;12.13;;;5.00;85.40;;;;;;5105781;28;20212;-74
2022/01/15 07:09:37;;;;;;;23.57;10.97;;;5.00;85.20;;;;;;5106467;28;20197;-73
2022/01/15 07:12:06;;;;;;;23.13;11.17;;;5.00;85.20;;;;;;5104515;28;20250;-74
2022/01/15 07:14:34;;;;;;;24.13;12.30;;;5.00;85.20;;;;;;5108223;28;20257;-75
2022/01/15 07:17:03;;;;;;;26.53;12.30;;;5.10;85.20;;;;;;5106485;28;20292;-74
2022/01/15 07:19:32;;;;;;;17.97;9.77;;;5.10;85.10;;;;;;5107883;28;20193;-75
2022/01/15 07:22:00;;;;;;;24.10;11.27;;;5.20;85.40;;;;;;5108311;28;20193;-74
2022/01/15 07:24:28;;;;;;;23.70;11.63;;;5.20;85.20;;;;;;5108087;28;20185;-75
2022/01/15 07:26:58;;;;;;;19.97;11.17;;;5.30;85.40;;;;;;5108023;28;20201;-75
2022/01/15 07:29:29;;;;;;;23.70;11.93;;;5.40;85.40;;;;;;5107014;28;20193;-75
2022/01/15 07:31:58;;;;;;;23.53;10.90;;;5.50;85.30;;;;;;5105911;28;20191;-74
2022/01/15 07:34:27;;;;;;;22.87;10.77;;;5.60;84.70;;;;;;5105655;28;20201;-74
2022/01/15 07:36:57;;;;;;;23.77;10.73;;;5.70;84.70;;;;;;5105516;28;20219;-74
2022/01/15 07:39:26;;;;;;;21.03;10.47;;;5.80;84.60;;;;;;5102680;28;20625;-75
2022/01/15 07:41:55;;;;;;;20.07;10.00;;;5.90;84.10;;;;;;5103561;28;20205;-74
2022/01/15 07:44:25;;;;;;;17.80;8.90;;;6.00;84.00;;;;;;5104882;28;20921;-74
2022/01/15 07:46:54;;;;;;;21.27;8.93;;;6.10;83.70;;;;;;5105999;28;20197;-75
2022/01/15 07:49:22;;;;;;;17.67;8.53;;;6.20;83.70;;;;;;5103582;28;20256;-75
2022/01/15 07:51:51;;;;;;;14.03;8.00;;;6.40;83.90;;;;;;5100752;28;20196;-75
2022/01/15 07:54:19;;;;;;;17.40;8.10;;;6.50;83.40;;;;;;5088138;28;20193;-75
2022/01/15 07:56:47;;;;;;;16.23;7.97;;;6.70;83.40;;;;;;5101587;28;20203;-75
2022/01/15 07:59:16;;;;;;;18.13;8.50;;;6.80;83.00;;;;;;5105467;28;20269;-75
2022/01/15 08:01:45;;;;;;;18.80;8.50;;;7.00;83.00;;;;;;5105687;28;20182;-75
2022/01/15 08:04:14;;;;;;;19.47;8.10;;;7.20;82.50;;;;;;5097952;28;20321;-75
2022/01/15 08:06:42;;;;;;;14.97;7.10;;;7.30;81.30;;;;;;5085416;28;20197;-75
2022/01/15 08:09:10;;;;;;;13.63;7.20;;;7.40;80.40;;;;;;5099025;28;20228;-75
2022/01/15 08:11:39;;;;;;;15.10;7.33;;;7.60;80.90;;;;;;5105179;28;20316;-75
2022/01/15 08:14:07;;;;;;;16.13;8.40;;;7.70;80.70;;;;;;5105929;28;20196;-74
2022/01/15 08:16:35;;;;;;;16.80;8.40;;;7.80;80.20;;;;;;5105426;28;20195;-74
2022/01/15 08:19:05;;;;;;;14.00;7.30;;;8.00;79.30;;;;;;5104793;28;20245;-75
2022/01/15 08:21:33;;;;;;;12.80;7.27;;;8.10;78.80;;;;;;5105754;28;20588;-75
2022/01/15 08:24:02;;;;;;;13.63;7.03;;;8.30;78.80;;;;;;5105118;28;20204;-74
2022/01/15 08:26:30;;;;;;;15.43;7.43;;;8.40;77.70;;;;;;5104944;28;20181;-75
2022/01/15 08:28:59;;;;;;;14.60;7.03;;;8.40;75.40;;;;;;5103972;28;20261;-75
2022/01/15 08:31:27;;;;;;;12.67;6.73;;;8.50;76.00;;;;;;5104205;28;20181;-76
2022/01/15 08:33:56;;;;;;;13.73;7.50;;;8.60;75.20;;;;;;5105613;28;20221;-75
2022/01/15 08:36:26;;;;;;;15.07;8.43;;;8.70;75.10;;;;;;5105314;28;20216;-75
2022/01/15 08:38:54;;;;;;;12.20;6.77;;;8.80;75.00;;;;;;5107103;28;20199;-76
2022/01/15 08:41:24;;;;;;;16.20;7.80;;;8.90;74.50;;;;;;5105447;28;20189;-75
2022/01/15 08:43:53;;;;;;;15.27;7.23;;;9.00;74.50;;;;;;5095554;28;20614;-75
2022/01/15 08:46:21;;;;;;;17.40;8.35;;;9.10;74.40;;;;;;5093490;28;21028;-75
2022/01/15 08:48:50;;;;;;;15.23;7.90;;;9.20;74.10;;;;;;5101727;28;20216;-76
2022/01/15 08:51:18;;;;;;;15.57;7.07;;;9.30;73.30;;;;;;5104069;28;20200;-76
2022/01/15 08:53:48;;;;;;;14.83;7.60;;;9.30;72.80;;;;;;5104143;28;20204;-76
2022/01/15 08:56:17;;;;;;;15.13;7.80;;;9.40;71.90;;;;;;5104108;28;20200;-76
2022/01/15 08:58:45;;;;;;;16.83;7.93;;;9.40;71.30;;;;;;5103886;28;20527;-77
2022/01/15 09:01:15;;;;;;;14.43;7.40;;;9.50;71.60;;;;;;5103366;28;20200;-76
2022/01/15 09:03:44;;;;;;;15.73;7.07;;;9.50;71.60;;;;;;5102741;28;20212;-75
2022/01/15 09:06:12;;;;;;;14.37;6.90;;;9.60;70.90;;;;;;5102329;28;20205;-76
2022/01/15 09:08:42;;;;;;;15.37;6.80;;;9.60;71.90;;;;;;5103752;28;20255;-76
2022/01/15 09:11:12;;;;;;;16.00;6.60;;;9.70;70.80;;;;;;5102976;28;20474;-75
2022/01/15 09:13:40;;;;;;;16.47;7.03;;;9.80;71.20;;;;;;5103603;28;20193;-76
2022/01/15 09:16:08;;;;;;;16.27;7.77;;;9.90;70.80;;;;;;5102007;28;20185;-75
2022/01/15 09:18:37;;;;;;;17.87;8.67;;;9.90;69.60;;;;;;5104600;28;20197;-76
2022/01/15 09:21:06;;;;;;;16.40;7.53;;;10.00;70.20;;;;;;5103779;28;20719;-76
2022/01/15 09:23:34;;;;;;;17.33;7.67;;;10.10;70.80;;;;;;5100219;28;20185;-76
2022/01/15 09:26:17;;;;;;;15.80;7.47;;;10.20;71.00;;;;;;5091817;28;20177;-76
2022/01/15 09:31:33;;;;;;;14.90;8.07;;;10.40;69.80;;;;;;5091496;28;20193;-76
2022/01/15 09:34:02;;;;;;;12.77;7.23;;;10.40;69.40;;;;;;5090481;28;20330;-76
2022/01/15 09:36:30;;;;;;;14.27;6.57;;;10.50;68.90;;;;;;5090002;28;20451;-76
2022/01/15 09:39:00;;;;;;;16.83;7.10;;;10.60;68.90;;;;;;5102817;28;20189;-75
2022/01/15 09:41:29;;;;;;;13.80;7.03;;;10.70;68.90;;;;;;5103614;28;20197;-77
2022/01/15 09:44:00;;;;;;;15.63;8.40;;;10.70;68.40;;;;;;5103522;28;20196;-76
2022/01/15 09:46:30;;;;;;;18.47;8.13;;;10.80;68.40;;;;;;5103076;28;20204;-76
2022/01/15 09:48:58;;;;;;;18.97;8.73;;;10.80;67.30;;;;;;5103551;28;20228;-76
2022/01/15 09:51:27;;;;;;;14.70;7.90;;;10.90;67.80;;;;;;5104489;28;20193;-76
2022/01/15 09:53:55;;;;;;;18.33;8.87;;;11.00;67.30;;;;;;5104367;28;20185;-76
2022/01/15 09:56:24;;;;;;;19.63;9.00;;;11.00;66.80;;;;;;5103106;28;20192;-76
2022/01/15 09:58:53;;;;;;;24.97;13.50;;;11.10;67.10;;;;;;5101924;28;20201;-77
2022/01/15 10:01:23;;;;;;;18.90;9.47;;;11.10;67.20;;;;;;5102754;28;20819;-76
2022/01/15 10:03:52;;;;;;;21.70;10.47;;;11.20;67.20;;;;;;5095981;28;20193;-75
2022/01/15 10:06:20;;;;;;;21.07;10.27;;;11.20;67.00;;;;;;5091324;28;20204;-76
2022/01/15 10:09:00;;;;;;;22.13;9.77;;;11.30;66.10;;;;;;5103167;28;20270;-77
2022/01/15 10:11:42;;;;;;;18.13;9.93;;;11.30;66.10;;;;;;5104240;28;20184;-76
2022/01/15 10:14:30;;;;;;;15.93;8.60;;;11.30;65.60;;;;;;5102526;28;20193;-75
2022/01/15 10:17:01;;;;;;;17.70;8.80;;;11.30;65.00;;;;;;5100756;28;20702;-75
2022/01/15 10:19:32;;;;;;;17.57;8.90;;;11.40;64.90;;;;;;5102098;28;20189;-76
2022/01/15 10:22:09;;;;;;;16.90;9.20;;;11.40;65.00;;;;;;5103101;28;20228;-73
2022/01/15 10:24:38;;;;;;;18.60;8.90;;;11.40;65.30;;;;;;5084114;28;20190;-76
2022/01/15 10:27:23;;;;;;;15.93;8.53;;;11.40;65.40;;;;;;5103192;28;20193;-76
2022/01/15 10:29:58;;;;;;;19.70;9.67;;;11.50;65.50;;;;;;5101267;28;20220;-76
2022/01/15 10:32:29;;;;;;;18.60;7.83;;;11.50;65.50;;;;;;5095761;28;20238;-76
2022/01/15 10:34:58;;;;;;;24.73;8.30;;;11.60;65.50;;;;;;5103976;28;20614;-76
2022/01/15 10:37:34;;;;;;;16.87;8.33;;;11.60;65.50;;;;;;5103011;28;20262;-76
2022/01/15 10:40:07;;;;;;;13.23;7.43;;;11.60;65.20;;;;;;5102985;28;20177;-76
2022/01/15 10:42:36;;;;;;;14.73;7.43;;;11.70;65.30;;;;;;5103105;28;20181;-77
2022/01/15 10:45:10;;;;;;;15.40;7.80;;;11.70;63.80;;;;;;5104617;28;20193;-77
2022/01/15 10:47:46;;;;;;;12.80;7.00;;;11.70;62.60;;;;;;5106218;28;20188;-77
2022/01/15 10:50:22;;;;;;;16.97;6.37;;;11.70;63.60;;;;;;5106541;28;20205;-76
2022/01/15 10:52:50;;;;;;;14.23;5.73;;;11.80;63.10;;;;;;5107340;28;20673;-75
2022/01/15 10:55:24;;;;;;;11.07;5.27;;;11.80;62.60;;;;;;5105770;28;20559;-77
2022/01/15 10:57:56;;;;;;;12.13;6.33;;;11.80;61.80;;;;;;5106858;28;20181;-76
2022/01/15 11:00:26;;;;;;;10.97;5.27;;;11.90;60.60;;;;;;5107503;28;20181;-77
2022/01/15 11:02:59;;;;;;;11.47;5.93;;;11.90;60.20;;;;;;5107759;28;20582;-75
2022/01/15 11:05:33;;;;;;;13.23;5.87;;;12.00;59.90;;;;;;5106932;28;20279;-76
2022/01/15 11:08:10;;;;;;;11.47;6.10;;;12.00;61.20;;;;;;5107103;28;20188;-77
2022/01/15 11:10:50;;;;;;;13.20;6.57;;;12.10;60.40;;;;;;5107384;28;20212;-78
2022/01/15 11:13:22;;;;;;;10.87;5.93;;;12.20;60.20;;;;;;5106693;28;20774;-76
2022/01/15 11:15:54;;;;;;;10.33;6.40;;;12.20;60.20;;;;;;5107006;28;20329;-76
2022/01/15 11:18:25;;;;;;;13.67;6.17;;;12.30;59.90;;;;;;5107473;28;20224;-76
2022/01/15 11:20:56;;;;;;;12.37;5.73;;;12.30;60.00;;;;;;5106608;28;20192;-77
2022/01/15 11:23:26;;;;;;;8.73;4.90;;;12.30;59.20;;;;;;5107652;28;20193;-75
2022/01/15 11:25:56;;;;;;;9.87;5.67;;;12.40;59.20;;;;;;5105375;28;20197;-77
2022/01/15 11:28:26;;;;;;;12.00;5.97;;;12.40;59.10;;;;;;5107346;28;20698;-76
2022/01/15 11:30:56;;;;;;;10.60;5.20;;;12.40;57.50;;;;;;5108594;28;20209;-76
2022/01/15 11:33:29;;;;;;;9.20;5.37;;;12.40;58.30;;;;;;5109250;28;20182;-76
2022/01/15 11:35:58;;;;;;;14.23;6.37;;;12.50;58.40;;;;;;5106592;28;20229;-76
2022/01/15 11:38:43;;;;;;;9.40;4.47;;;12.50;58.00;;;;;;5107811;28;20182;-76
2022/01/15 11:41:40;;;;;;;11.07;5.07;;;12.60;58.30;;;;;;5106027;28;20186;-74
2022/01/15 11:44:11;;;;;;;9.77;4.60;;;12.60;58.20;;;;;;5106666;28;20178;-75
2022/01/15 11:46:48;;;;;;;10.27;4.57;;;12.70;57.20;;;;;;5104457;28;20686;-75
2022/01/15 11:49:44;;;;;;;9.17;4.17;;;12.70;57.60;;;;;;5086496;28;20182;-75
2022/01/15 11:52:33;;;;;;;9.43;4.07;;;12.80;55.60;;;;;;5104429;28;20189;-75
2022/01/15 11:55:18;;;;;;;5.77;3.07;;;12.80;55.20;;;;;;5103724;28;20819;-75
2022/01/15 11:57:52;;;;;;;7.53;3.90;;;12.90;54.90;;;;;;5102302;28;20549;-75
2022/01/15 12:00:23;;;;;;;7.30;3.80;;;12.90;54.70;;;;;;5105780;28;20173;-74
2022/01/15 12:03:15;;;;;;;7.90;4.20;;;12.90;52.70;;;;;;5105179;28;20646;-75
2022/01/15 12:05:48;;;;;;;8.80;4.10;;;12.90;51.00;;;;;;5105607;28;20243;-74
2022/01/15 12:08:30;;;;;;;6.17;3.20;;;12.90;51.80;;;;;;5102804;28;20189;-75
2022/01/15 12:11:01;;;;;;;8.13;3.40;;;12.90;51.90;;;;;;5105594;28;20205;-74
2022/01/15 12:13:35;;;;;;;7.33;3.00;;;13.00;51.70;;;;;;5104035;28;20180;-75
2022/01/15 12:16:36;;;;;;;5.70;3.30;;;13.00;50.20;;;;;;5099548;28;20806;-75
2022/01/15 12:19:07;;;;;;;7.27;2.97;;;13.00;50.50;;;;;;5099750;28;20245;-75
2022/01/15 12:21:48;;;;;;;7.73;3.37;;;13.00;50.20;;;;;;5100817;28;20193;-75
2022/01/15 12:24:39;;;;;;;7.43;2.97;;;13.00;49.20;;;;;;5095855;28;20246;-75
2022/01/15 12:27:11;;;;;;;6.30;2.53;;;13.00;48.90;;;;;;5099748;28;20811;-75
2022/01/15 12:29:40;;;;;;;5.67;2.67;;;13.00;47.70;;;;;;5102457;28;20185;-74
2022/01/15 12:32:09;;;;;;;5.73;2.40;;;13.10;47.90;;;;;;5100950;28;20191;-75
2022/01/15 12:34:38;;;;;;;5.47;2.90;;;13.10;46.40;;;;;;5097967;28;20200;-75
2022/01/15 12:37:14;;;;;;;8.97;3.53;;;13.10;46.10;;;;;;5103431;28;20193;-75
2022/01/15 12:39:42;;;;;;;10.17;3.43;;;13.10;47.40;;;;;;5099675;28;20200;-75
2022/01/15 12:42:13;;;;;;;7.63;3.20;;;13.10;47.20;;;;;;5096054;28;20198;-74
2022/01/15 12:44:43;;;;;;;6.27;3.40;;;13.10;47.10;;;;;;5096792;28;20204;-75
2022/01/15 12:47:11;;;;;;;8.47;4.00;;;13.20;48.00;;;;;;5105040;28;20200;-76
2022/01/15 12:49:42;;;;;;;7.00;3.47;;;13.20;48.10;;;;;;5102578;28;20193;-75
2022/01/15 12:52:15;;;;;;;8.93;3.73;;;13.30;47.90;;;;;;5104535;28;20959;-75
2022/01/15 12:54:47;;;;;;;7.37;3.37;;;13.30;48.30;;;;;;5105377;28;21339;-75
2022/01/15 12:57:15;;;;;;;8.27;4.40;;;13.40;48.00;;;;;;5105080;28;20201;-76
2022/01/15 12:59:43;;;;;;;11.97;4.63;;;13.40;47.80;;;;;;5103432;28;20702;-77
2022/01/15 13:02:12;;;;;;;10.27;4.20;;;13.40;48.00;;;;;;5105241;28;20201;-76
2022/01/15 13:04:40;;;;;;;10.70;4.30;;;13.40;48.00;;;;;;5103489;28;20218;-75
2022/01/15 13:07:09;;;;;;;9.13;4.53;;;13.50;48.30;;;;;;5103527;28;20220;-76
2022/01/15 13:09:44;;;;;;;7.70;4.23;;;13.50;48.50;;;;;;5103236;28;20195;-76
2022/01/15 13:12:13;;;;;;;8.93;4.80;;;13.60;49.30;;;;;;5104699;28;20218;-74
2022/01/15 13:14:43;;;;;;;10.20;4.97;;;13.80;48.80;;;;;;5105255;28;20211;-75
2022/01/15 13:17:26;;;;;;;9.17;4.60;;;13.90;48.90;;;;;;5104066;28;20815;-77